sensor_id;sensor_type;location;lat;lon;timestamp;P1;durP1;ratioP1;P2;durP2;ratioP2
28523;SDS011;15734;50.904;6.922;2023-05-07T00:01:36;20.13;;;9.85;;
28523;SDS011;15734;50.904;6.922;2023-05-07T00:04:01;19.83;;;9.95;;
28523;SDS011;15734;50.904;6.922;2023-05-07T00:06:28;16.65;;;9.98;;
28523;SDS011;15734;50.904;6.922;2023-05-07T00:08:54;26.77;;;10.68;;
28523;SDS011;15734;50.904;6.922;2023-05-07T00:11:19;19.15;;;11.68;;
28523;SDS011;15734;50.904;6.922;2023-05-07T00:13:45;26.23;;;11.32;;
28523;SDS011;15734;50.904;6.922;2023-05-07T00:16:12;21.98;;;11.23;;
28523;SDS011;15734;50.904;6.922;2023-05-07T00:18:37;22.98;;;11.60;;
28523;SDS011;15734;50.904;6.922;2023-05-07T00:21:03;24.10;;;10.32;;
28523;SDS011;15734;50.904;6.922;2023-05-07T00:23:29;24.60;;;10.80;;
28523;SDS011;15734;50.904;6.922;2023-05-07T00:25:55;19.73;;;11.30;;
28523;SDS011;15734;50.904;6.922;2023-05-07T00:28:21;20.67;;;10.43;;
28523;SDS011;15734;50.904;6.922;2023-05-07T00:30:46;18.00;;;10.15;;
28523;SDS011;15734;50.904;6.922;2023-05-07T00:33:12;20.75;;;10.70;;
28523;SDS011;15734;50.904;6.922;2023-05-07T00:35:37;23.70;;;11.85;;
28523;SDS011;15734;50.904;6.922;2023-05-07T00:38:03;22.02;;;10.90;;
28523;SDS011;15734;50.904;6.922;2023-05-07T00:40:29;19.75;;;10.32;;
28523;SDS011;15734;50.904;6.922;2023-05-07T00:42:54;19.92;;;10.27;;
28523;SDS011;15734;50.904;6.922;2023-05-07T00:45:23;21.58;;;9.98;;
28523;SDS011;15734;50.904;6.922;2023-05-07T00:47:54;25.45;;;11.68;;
28523;SDS011;15734;50.904;6.922;2023-05-07T00:50:20;24.63;;;10.43;;
28523;SDS011;15734;50.904;6.922;2023-05-07T00:52:47;21.13;;;10.93;;
28523;SDS011;15734;50.904;6.922;2023-05-07T00:55:12;22.35;;;11.68;;
28523;SDS011;15734;50.904;6.922;2023-05-07T00:57:39;22.92;;;11.27;;
28523;SDS011;15734;50.904;6.922;2023-05-07T01:00:06;22.88;;;10.35;;
28523;SDS011;15734;50.904;6.922;2023-05-07T01:02:37;15.25;;;9.82;;
28523;SDS011;15734;50.904;6.922;2023-05-07T01:05:03;16.92;;;9.50;;
28523;SDS011;15734;50.904;6.922;2023-05-07T01:07:31;12.93;;;8.80;;
28523;SDS011;15734;50.904;6.922;2023-05-07T01:09:58;15.50;;;9.23;;
28523;SDS011;15734;50.904;6.922;2023-05-07T01:12:25;13.35;;;8.43;;
28523;SDS011;15734;50.904;6.922;2023-05-07T01:14:52;17.35;;;8.63;;
28523;SDS011;15734;50.904;6.922;2023-05-07T01:17:18;14.50;;;7.75;;
28523;SDS011;15734;50.904;6.922;2023-05-07T01:19:44;10.77;;;7.95;;
28523;SDS011;15734;50.904;6.922;2023-05-07T01:22:10;11.75;;;7.57;;
28523;SDS011;15734;50.904;6.922;2023-05-07T01:24:36;11.18;;;7.10;;
28523;SDS011;15734;50.904;6.922;2023-05-07T01:27:02;15.98;;;8.05;;
28523;SDS011;15734;50.904;6.922;2023-05-07T01:29:28;10.32;;;7.57;;
28523;SDS011;15734;50.904;6.922;2023-05-07T01:31:56;11.02;;;6.93;;
28523;SDS011;15734;50.904;6.922;2023-05-07T01:34:23;10.77;;;6.60;;
28523;SDS011;15734;50.904;6.922;2023-05-07T01:36:52;11.38;;;7.28;;
28523;SDS011;15734;50.904;6.922;2023-05-07T01:39:20;15.98;;;6.63;;
28523;SDS011;15734;50.904;6.922;2023-05-07T01:41:48;7.03;;;5.95;;
28523;SDS011;15734;50.904;6.922;2023-05-07T01:44:14;10.50;;;6.55;;
28523;SDS011;15734;50.904;6.922;2023-05-07T01:46:40;10.90;;;6.13;;
28523;SDS011;15734;50.904;6.922;2023-05-07T01:49:06;7.72;;;5.82;;
28523;SDS011;15734;50.904;6.922;2023-05-07T01:51:31;11.50;;;6.55;;
28523;SDS011;15734;50.904;6.922;2023-05-07T01:53:58;11.05;;;6.22;;
28523;SDS011;15734;50.904;6.922;2023-05-07T01:56:24;10.90;;;5.68;;
28523;SDS011;15734;50.904;6.922;2023-05-07T01:58:49;12.43;;;6.22;;
28523;SDS011;15734;50.904;6.922;2023-05-07T02:01:16;10.88;;;6.60;;
28523;SDS011;15734;50.904;6.922;2023-05-07T02:03:43;8.50;;;5.90;;
28523;SDS011;15734;50.904;6.922;2023-05-07T02:06:08;19.58;;;7.03;;
28523;SDS011;15734;50.904;6.922;2023-05-07T02:08:34;11.60;;;6.63;;
28523;SDS011;15734;50.904;6.922;2023-05-07T02:11:00;11.75;;;6.05;;
28523;SDS011;15734;50.904;6.922;2023-05-07T02:13:29;12.90;;;7.50;;
28523;SDS011;15734;50.904;6.922;2023-05-07T02:15:57;8.93;;;6.13;;
28523;SDS011;15734;50.904;6.922;2023-05-07T02:18:22;12.85;;;5.95;;
28523;SDS011;15734;50.904;6.922;2023-05-07T02:20:48;19.60;;;6.65;;
28523;SDS011;15734;50.904;6.922;2023-05-07T02:23:14;14.30;;;6.22;;
28523;SDS011;15734;50.904;6.922;2023-05-07T02:25:39;9.15;;;5.43;;
28523;SDS011;15734;50.904;6.922;2023-05-07T02:28:05;13.80;;;5.55;;
28523;SDS011;15734;50.904;6.922;2023-05-07T02:30:31;10.10;;;6.00;;
28523;SDS011;15734;50.904;6.922;2023-05-07T02:32:56;15.27;;;6.10;;
28523;SDS011;15734;50.904;6.922;2023-05-07T02:35:22;13.55;;;6.82;;
28523;SDS011;15734;50.904;6.922;2023-05-07T02:37:49;7.97;;;6.15;;
28523;SDS011;15734;50.904;6.922;2023-05-07T02:40:15;9.10;;;6.07;;
28523;SDS011;15734;50.904;6.922;2023-05-07T02:42:40;8.80;;;5.78;;
28523;SDS011;15734;50.904;6.922;2023-05-07T02:45:06;13.13;;;5.70;;
28523;SDS011;15734;50.904;6.922;2023-05-07T02:47:32;14.38;;;6.60;;
28523;SDS011;15734;50.904;6.922;2023-05-07T02:49:58;10.85;;;6.68;;
28523;SDS011;15734;50.904;6.922;2023-05-07T02:52:23;10.13;;;5.80;;
28523;SDS011;15734;50.904;6.922;2023-05-07T02:54:49;12.82;;;5.25;;
28523;SDS011;15734;50.904;6.922;2023-05-07T02:57:14;9.82;;;5.50;;
28523;SDS011;15734;50.904;6.922;2023-05-07T02:59:40;12.60;;;5.80;;
28523;SDS011;15734;50.904;6.922;2023-05-07T03:02:06;8.13;;;5.50;;
28523;SDS011;15734;50.904;6.922;2023-05-07T03:04:32;8.93;;;5.93;;
28523;SDS011;15734;50.904;6.922;2023-05-07T03:06:57;10.05;;;5.93;;
28523;SDS011;15734;50.904;6.922;2023-05-07T03:09:22;9.40;;;5.68;;
28523;SDS011;15734;50.904;6.922;2023-05-07T03:11:48;12.88;;;5.97;;
28523;SDS011;15734;50.904;6.922;2023-05-07T03:14:14;10.70;;;6.25;;
28523;SDS011;15734;50.904;6.922;2023-05-07T03:16:39;8.65;;;6.20;;
28523;SDS011;15734;50.904;6.922;2023-05-07T03:19:05;14.25;;;8.13;;
28523;SDS011;15734;50.904;6.922;2023-05-07T03:21:30;9.35;;;5.70;;
28523;SDS011;15734;50.904;6.922;2023-05-07T03:23:58;10.05;;;6.25;;
28523;SDS011;15734;50.904;6.922;2023-05-07T03:26:24;11.13;;;5.82;;
28523;SDS011;15734;50.904;6.922;2023-05-07T03:28:50;8.00;;;5.38;;
28523;SDS011;15734;50.904;6.922;2023-05-07T03:31:15;10.18;;;6.65;;
28523;SDS011;15734;50.904;6.922;2023-05-07T03:33:51;8.45;;;6.03;;
28523;SDS011;15734;50.904;6.922;2023-05-07T03:36:18;8.90;;;5.53;;
28523;SDS011;15734;50.904;6.922;2023-05-07T03:38:44;14.10;;;8.38;;
28523;SDS011;15734;50.904;6.922;2023-05-07T03:41:10;13.60;;;6.38;;
28523;SDS011;15734;50.904;6.922;2023-05-07T03:43:36;9.52;;;6.38;;
28523;SDS011;15734;50.904;6.922;2023-05-07T03:46:01;8.80;;;6.28;;
28523;SDS011;15734;50.904;6.922;2023-05-07T03:48:27;21.05;;;6.88;;
28523;SDS011;15734;50.904;6.922;2023-05-07T03:50:52;10.13;;;6.60;;
28523;SDS011;15734;50.904;6.922;2023-05-07T03:53:18;9.93;;;6.07;;
28523;SDS011;15734;50.904;6.922;2023-05-07T03:55:43;10.90;;;5.95;;
28523;SDS011;15734;50.904;6.922;2023-05-07T03:58:09;9.13;;;5.55;;
28523;SDS011;15734;50.904;6.922;2023-05-07T04:00:35;9.35;;;6.38;;
28523;SDS011;15734;50.904;6.922;2023-05-07T04:03:03;11.85;;;5.25;;
28523;SDS011;15734;50.904;6.922;2023-05-07T04:05:29;11.23;;;6.22;;
28523;SDS011;15734;50.904;6.922;2023-05-07T04:07:55;10.00;;;6.20;;
28523;SDS011;15734;50.904;6.922;2023-05-07T04:10:22;9.15;;;5.32;;
28523;SDS011;15734;50.904;6.922;2023-05-07T04:12:48;11.27;;;6.25;;
28523;SDS011;15734;50.904;6.922;2023-05-07T04:15:13;11.38;;;7.05;;
28523;SDS011;15734;50.904;6.922;2023-05-07T04:17:39;9.55;;;5.85;;
28523;SDS011;15734;50.904;6.922;2023-05-07T04:20:06;11.25;;;6.38;;
28523;SDS011;15734;50.904;6.922;2023-05-07T04:22:35;7.93;;;5.22;;
28523;SDS011;15734;50.904;6.922;2023-05-07T04:25:01;7.88;;;5.25;;
28523;SDS011;15734;50.904;6.922;2023-05-07T04:27:27;8.60;;;5.63;;
28523;SDS011;15734;50.904;6.922;2023-05-07T04:29:53;9.23;;;6.18;;
28523;SDS011;15734;50.904;6.922;2023-05-07T04:32:21;7.28;;;5.35;;
28523;SDS011;15734;50.904;6.922;2023-05-07T04:34:47;7.95;;;5.45;;
28523;SDS011;15734;50.904;6.922;2023-05-07T04:37:12;8.57;;;5.53;;
28523;SDS011;15734;50.904;6.922;2023-05-07T04:39:38;7.68;;;5.70;;
28523;SDS011;15734;50.904;6.922;2023-05-07T04:42:03;9.82;;;6.10;;
28523;SDS011;15734;50.904;6.922;2023-05-07T04:44:29;10.30;;;6.22;;
28523;SDS011;15734;50.904;6.922;2023-05-07T04:46:56;9.45;;;5.72;;
28523;SDS011;15734;50.904;6.922;2023-05-07T04:49:21;12.88;;;5.78;;
28523;SDS011;15734;50.904;6.922;2023-05-07T04:51:47;14.27;;;5.78;;
28523;SDS011;15734;50.904;6.922;2023-05-07T04:54:13;9.80;;;6.13;;
28523;SDS011;15734;50.904;6.922;2023-05-07T04:56:38;9.93;;;5.57;;
28523;SDS011;15734;50.904;6.922;2023-05-07T04:59:04;12.73;;;6.28;;
28523;SDS011;15734;50.904;6.922;2023-05-07T05:01:29;8.07;;;5.78;;
28523;SDS011;15734;50.904;6.922;2023-05-07T05:03:55;10.13;;;6.57;;
28523;SDS011;15734;50.904;6.922;2023-05-07T05:06:20;7.35;;;5.45;;
28523;SDS011;15734;50.904;6.922;2023-05-07T05:08:46;7.55;;;5.57;;
28523;SDS011;15734;50.904;6.922;2023-05-07T05:11:11;12.02;;;6.22;;
28523;SDS011;15734;50.904;6.922;2023-05-07T05:13:37;17.77;;;7.22;;
28523;SDS011;15734;50.904;6.922;2023-05-07T05:16:02;16.85;;;7.20;;
28523;SDS011;15734;50.904;6.922;2023-05-07T05:18:28;9.95;;;5.75;;
28523;SDS011;15734;50.904;6.922;2023-05-07T05:20:53;9.48;;;5.63;;
28523;SDS011;15734;50.904;6.922;2023-05-07T05:23:19;11.30;;;6.57;;
28523;SDS011;15734;50.904;6.922;2023-05-07T05:25:45;11.10;;;5.90;;
28523;SDS011;15734;50.904;6.922;2023-05-07T05:28:10;12.13;;;5.72;;
28523;SDS011;15734;50.904;6.922;2023-05-07T05:30:36;8.88;;;5.47;;
28523;SDS011;15734;50.904;6.922;2023-05-07T05:33:01;11.70;;;5.93;;
28523;SDS011;15734;50.904;6.922;2023-05-07T05:35:27;8.65;;;5.63;;
28523;SDS011;15734;50.904;6.922;2023-05-07T05:37:52;14.52;;;6.20;;
28523;SDS011;15734;50.904;6.922;2023-05-07T05:40:18;8.88;;;5.72;;
28523;SDS011;15734;50.904;6.922;2023-05-07T05:42:44;9.23;;;5.65;;
28523;SDS011;15734;50.904;6.922;2023-05-07T05:45:09;12.02;;;5.32;;
28523;SDS011;15734;50.904;6.922;2023-05-07T05:47:35;8.75;;;5.35;;
28523;SDS011;15734;50.904;6.922;2023-05-07T05:50:00;6.75;;;4.90;;
28523;SDS011;15734;50.904;6.922;2023-05-07T05:52:26;12.00;;;5.70;;
28523;SDS011;15734;50.904;6.922;2023-05-07T05:54:52;12.48;;;5.43;;
28523;SDS011;15734;50.904;6.922;2023-05-07T05:57:18;18.60;;;5.43;;
28523;SDS011;15734;50.904;6.922;2023-05-07T05:59:43;7.63;;;4.82;;
28523;SDS011;15734;50.904;6.922;2023-05-07T06:02:09;8.88;;;4.43;;
28523;SDS011;15734;50.904;6.922;2023-05-07T06:04:35;6.55;;;5.00;;
28523;SDS011;15734;50.904;6.922;2023-05-07T06:07:00;9.63;;;5.20;;
28523;SDS011;15734;50.904;6.922;2023-05-07T06:09:26;7.60;;;4.65;;
28523;SDS011;15734;50.904;6.922;2023-05-07T06:11:51;5.55;;;3.72;;
28523;SDS011;15734;50.904;6.922;2023-05-07T06:14:17;9.25;;;4.13;;
28523;SDS011;15734;50.904;6.922;2023-05-07T06:16:43;7.18;;;3.92;;
28523;SDS011;15734;50.904;6.922;2023-05-07T06:19:09;6.22;;;4.25;;
28523;SDS011;15734;50.904;6.922;2023-05-07T06:21:34;7.15;;;3.90;;
28523;SDS011;15734;50.904;6.922;2023-05-07T06:24:00;7.10;;;3.10;;
28523;SDS011;15734;50.904;6.922;2023-05-07T06:26:25;5.05;;;3.33;;
28523;SDS011;15734;50.904;6.922;2023-05-07T06:28:51;8.45;;;2.83;;
28523;SDS011;15734;50.904;6.922;2023-05-07T06:31:18;6.00;;;3.17;;
28523;SDS011;15734;50.904;6.922;2023-05-07T06:33:47;11.85;;;3.03;;
28523;SDS011;15734;50.904;6.922;2023-05-07T06:36:13;4.15;;;3.40;;
28523;SDS011;15734;50.904;6.922;2023-05-07T06:38:39;6.95;;;3.10;;
28523;SDS011;15734;50.904;6.922;2023-05-07T06:41:05;5.88;;;2.90;;
28523;SDS011;15734;50.904;6.922;2023-05-07T06:43:31;7.05;;;2.75;;
28523;SDS011;15734;50.904;6.922;2023-05-07T06:45:57;4.47;;;2.80;;
28523;SDS011;15734;50.904;6.922;2023-05-07T06:48:22;3.53;;;2.88;;
28523;SDS011;15734;50.904;6.922;2023-05-07T06:50:48;7.38;;;3.08;;
28523;SDS011;15734;50.904;6.922;2023-05-07T06:53:13;5.07;;;2.63;;
28523;SDS011;15734;50.904;6.922;2023-05-07T06:55:39;3.80;;;2.92;;
28523;SDS011;15734;50.904;6.922;2023-05-07T06:58:05;5.07;;;2.85;;
28523;SDS011;15734;50.904;6.922;2023-05-07T07:00:31;5.72;;;2.33;;
28523;SDS011;15734;50.904;6.922;2023-05-07T07:02:56;7.13;;;2.80;;
28523;SDS011;15734;50.904;6.922;2023-05-07T07:05:22;4.20;;;2.40;;
28523;SDS011;15734;50.904;6.922;2023-05-07T07:07:48;7.28;;;2.38;;
28523;SDS011;15734;50.904;6.922;2023-05-07T07:10:20;7.25;;;2.60;;
28523;SDS011;15734;50.904;6.922;2023-05-07T07:12:46;9.27;;;2.70;;
28523;SDS011;15734;50.904;6.922;2023-05-07T07:15:11;7.03;;;3.33;;
28523;SDS011;15734;50.904;6.922;2023-05-07T07:17:38;13.07;;;2.38;;
28523;SDS011;15734;50.904;6.922;2023-05-07T07:20:03;5.07;;;2.78;;
28523;SDS011;15734;50.904;6.922;2023-05-07T07:22:29;11.07;;;2.47;;
28523;SDS011;15734;50.904;6.922;2023-05-07T07:24:55;6.85;;;2.30;;
28523;SDS011;15734;50.904;6.922;2023-05-07T07:27:20;4.15;;;2.40;;
28523;SDS011;15734;50.904;6.922;2023-05-07T07:29:46;6.40;;;2.72;;
28523;SDS011;15734;50.904;6.922;2023-05-07T07:32:11;5.38;;;2.33;;
28523;SDS011;15734;50.904;6.922;2023-05-07T07:34:37;6.22;;;1.73;;
28523;SDS011;15734;50.904;6.922;2023-05-07T07:37:02;5.25;;;2.60;;
28523;SDS011;15734;50.904;6.922;2023-05-07T07:39:31;4.80;;;2.20;;
28523;SDS011;15734;50.904;6.922;2023-05-07T07:41:57;6.78;;;2.35;;
28523;SDS011;15734;50.904;6.922;2023-05-07T07:44:22;5.10;;;2.00;;
28523;SDS011;15734;50.904;6.922;2023-05-07T07:46:48;4.03;;;2.13;;
28523;SDS011;15734;50.904;6.922;2023-05-07T07:49:14;2.70;;;2.03;;
28523;SDS011;15734;50.904;6.922;2023-05-07T07:51:39;5.43;;;2.08;;
28523;SDS011;15734;50.904;6.922;2023-05-07T07:54:05;7.53;;;2.10;;
28523;SDS011;15734;50.904;6.922;2023-05-07T07:56:32;4.60;;;2.30;;
28523;SDS011;15734;50.904;6.922;2023-05-07T07:59:01;2.55;;;1.95;;
28523;SDS011;15734;50.904;6.922;2023-05-07T08:01:26;3.97;;;2.28;;
28523;SDS011;15734;50.904;6.922;2023-05-07T08:03:54;6.90;;;2.53;;
28523;SDS011;15734;50.904;6.922;2023-05-07T08:06:20;3.10;;;2.08;;
28523;SDS011;15734;50.904;6.922;2023-05-07T08:08:45;3.90;;;1.45;;
28523;SDS011;15734;50.904;6.922;2023-05-07T08:11:11;6.82;;;2.00;;
28523;SDS011;15734;50.904;6.922;2023-05-07T08:13:37;4.63;;;2.80;;
28523;SDS011;15734;50.904;6.922;2023-05-07T08:16:03;5.32;;;2.20;;
28523;SDS011;15734;50.904;6.922;2023-05-07T08:18:29;7.03;;;2.28;;
28523;SDS011;15734;50.904;6.922;2023-05-07T08:20:55;3.85;;;1.70;;
28523;SDS011;15734;50.904;6.922;2023-05-07T08:23:21;6.13;;;2.03;;
28523;SDS011;15734;50.904;6.922;2023-05-07T08:25:47;4.70;;;1.98;;
28523;SDS011;15734;50.904;6.922;2023-05-07T08:28:13;2.92;;;1.77;;
28523;SDS011;15734;50.904;6.922;2023-05-07T08:30:38;4.82;;;2.15;;
28523;SDS011;15734;50.904;6.922;2023-05-07T08:33:04;5.18;;;2.13;;
28523;SDS011;15734;50.904;6.922;2023-05-07T08:35:29;5.25;;;1.92;;
28523;SDS011;15734;50.904;6.922;2023-05-07T08:37:55;5.70;;;1.80;;
28523;SDS011;15734;50.904;6.922;2023-05-07T08:40:23;4.30;;;2.28;;
28523;SDS011;15734;50.904;6.922;2023-05-07T08:42:51;3.92;;;2.00;;
28523;SDS011;15734;50.904;6.922;2023-05-07T08:45:18;1.75;;;1.60;;
28523;SDS011;15734;50.904;6.922;2023-05-07T08:47:46;5.13;;;1.92;;
28523;SDS011;15734;50.904;6.922;2023-05-07T08:50:15;8.30;;;1.70;;
28523;SDS011;15734;50.904;6.922;2023-05-07T08:52:41;2.83;;;2.03;;
28523;SDS011;15734;50.904;6.922;2023-05-07T08:55:07;4.00;;;1.90;;
28523;SDS011;15734;50.904;6.922;2023-05-07T08:57:34;7.40;;;2.22;;
28523;SDS011;15734;50.904;6.922;2023-05-07T09:00:00;8.25;;;2.30;;
28523;SDS011;15734;50.904;6.922;2023-05-07T09:02:26;2.83;;;2.17;;
28523;SDS011;15734;50.904;6.922;2023-05-07T09:04:52;2.70;;;1.90;;
28523;SDS011;15734;50.904;6.922;2023-05-07T09:07:18;11.38;;;1.63;;
28523;SDS011;15734;50.904;6.922;2023-05-07T09:09:44;6.78;;;2.55;;
28523;SDS011;15734;50.904;6.922;2023-05-07T09:12:11;5.03;;;2.47;;
28523;SDS011;15734;50.904;6.922;2023-05-07T09:14:36;1.98;;;1.67;;
28523;SDS011;15734;50.904;6.922;2023-05-07T09:17:02;3.70;;;2.00;;
28523;SDS011;15734;50.904;6.922;2023-05-07T09:19:28;7.65;;;1.95;;
28523;SDS011;15734;50.904;6.922;2023-05-07T09:22:01;2.00;;;1.42;;
28523;SDS011;15734;50.904;6.922;2023-05-07T09:24:28;2.20;;;1.40;;
28523;SDS011;15734;50.904;6.922;2023-05-07T09:26:58;7.47;;;1.88;;
28523;SDS011;15734;50.904;6.922;2023-05-07T09:29:25;5.15;;;2.25;;
28523;SDS011;15734;50.904;6.922;2023-05-07T09:31:51;3.92;;;1.60;;
28523;SDS011;15734;50.904;6.922;2023-05-07T09:34:16;3.90;;;1.98;;
28523;SDS011;15734;50.904;6.922;2023-05-07T09:36:42;2.13;;;1.67;;
28523;SDS011;15734;50.904;6.922;2023-05-07T09:39:07;4.07;;;1.90;;
28523;SDS011;15734;50.904;6.922;2023-05-07T09:41:33;3.92;;;1.63;;
28523;SDS011;15734;50.904;6.922;2023-05-07T09:44:09;2.92;;;1.77;;
28523;SDS011;15734;50.904;6.922;2023-05-07T09:46:36;6.97;;;1.80;;
28523;SDS011;15734;50.904;6.922;2023-05-07T09:49:03;10.18;;;3.03;;
28523;SDS011;15734;50.904;6.922;2023-05-07T09:51:43;4.60;;;1.70;;
28523;SDS011;15734;50.904;6.922;2023-05-07T09:54:13;2.38;;;1.70;;
28523;SDS011;15734;50.904;6.922;2023-05-07T09:56:39;5.50;;;2.17;;
28523;SDS011;15734;50.904;6.922;2023-05-07T09:59:06;3.15;;;1.70;;
28523;SDS011;15734;50.904;6.922;2023-05-07T10:01:36;5.90;;;2.25;;
28523;SDS011;15734;50.904;6.922;2023-05-07T10:04:02;8.50;;;2.05;;
28523;SDS011;15734;50.904;6.922;2023-05-07T10:06:33;3.15;;;1.90;;
28523;SDS011;15734;50.904;6.922;2023-05-07T10:09:00;3.25;;;1.50;;
28523;SDS011;15734;50.904;6.922;2023-05-07T10:11:26;1.85;;;1.40;;
28523;SDS011;15734;50.904;6.922;2023-05-07T10:13:53;6.90;;;1.27;;
28523;SDS011;15734;50.904;6.922;2023-05-07T10:16:20;3.78;;;1.55;;
28523;SDS011;15734;50.904;6.922;2023-05-07T10:18:46;3.50;;;1.90;;
28523;SDS011;15734;50.904;6.922;2023-05-07T10:21:20;2.15;;;1.70;;
28523;SDS011;15734;50.904;6.922;2023-05-07T10:23:49;4.72;;;1.80;;
28523;SDS011;15734;50.904;6.922;2023-05-07T10:26:17;2.15;;;1.55;;
28523;SDS011;15734;50.904;6.922;2023-05-07T10:28:46;2.70;;;1.70;;
28523;SDS011;15734;50.904;6.922;2023-05-07T10:34:21;2.45;;;1.50;;
28523;SDS011;15734;50.904;6.922;2023-05-07T10:36:50;10.45;;;2.22;;
28523;SDS011;15734;50.904;6.922;2023-05-07T10:39:17;2.17;;;1.42;;
28523;SDS011;15734;50.904;6.922;2023-05-07T10:41:44;3.03;;;1.73;;
28523;SDS011;15734;50.904;6.922;2023-05-07T10:44:10;3.58;;;1.70;;
28523;SDS011;15734;50.904;6.922;2023-05-07T10:46:36;3.53;;;1.60;;
28523;SDS011;15734;50.904;6.922;2023-05-07T10:51:33;2.50;;;1.52;;
28523;SDS011;15734;50.904;6.922;2023-05-07T10:56:35;9.00;;;1.63;;
28523;SDS011;15734;50.904;6.922;2023-05-07T11:02:06;2.17;;;1.40;;
28523;SDS011;15734;50.904;6.922;2023-05-07T11:04:34;2.00;;;1.40;;
28523;SDS011;15734;50.904;6.922;2023-05-07T11:15:04;5.97;;;1.60;;
28523;SDS011;15734;50.904;6.922;2023-05-07T11:17:34;2.50;;;1.55;;
28523;SDS011;15734;50.904;6.922;2023-05-07T11:20:16;2.42;;;1.58;;
28523;SDS011;15734;50.904;6.922;2023-05-07T11:22:42;7.65;;;1.60;;
28523;SDS011;15734;50.904;6.922;2023-05-07T11:25:07;2.22;;;1.05;;
28523;SDS011;15734;50.904;6.922;2023-05-07T11:27:33;4.57;;;1.67;;
28523;SDS011;15734;50.904;6.922;2023-05-07T11:29:59;2.10;;;1.20;;
28523;SDS011;15734;50.904;6.922;2023-05-07T11:32:29;2.80;;;1.25;;
28523;SDS011;15734;50.904;6.922;2023-05-07T11:34:56;4.13;;;1.00;;
28523;SDS011;15734;50.904;6.922;2023-05-07T11:37:23;2.53;;;1.40;;
28523;SDS011;15734;50.904;6.922;2023-05-07T11:39:50;4.03;;;1.40;;
28523;SDS011;15734;50.904;6.922;2023-05-07T11:42:29;2.30;;;0.80;;
28523;SDS011;15734;50.904;6.922;2023-05-07T11:45:03;3.78;;;1.30;;
28523;SDS011;15734;50.904;6.922;2023-05-07T11:47:31;2.75;;;1.50;;
28523;SDS011;15734;50.904;6.922;2023-05-07T11:49:56;3.30;;;1.27;;
28523;SDS011;15734;50.904;6.922;2023-05-07T11:52:26;5.43;;;1.30;;
28523;SDS011;15734;50.904;6.922;2023-05-07T11:54:56;4.38;;;1.40;;
28523;SDS011;15734;50.904;6.922;2023-05-07T11:57:23;1.63;;;1.30;;
28523;SDS011;15734;50.904;6.922;2023-05-07T11:59:53;2.72;;;1.20;;
28523;SDS011;15734;50.904;6.922;2023-05-07T12:02:19;3.63;;;1.23;;
28523;SDS011;15734;50.904;6.922;2023-05-07T12:04:45;3.08;;;1.33;;
28523;SDS011;15734;50.904;6.922;2023-05-07T12:07:13;2.50;;;1.50;;
28523;SDS011;15734;50.904;6.922;2023-05-07T12:09:43;2.35;;;1.05;;
28523;SDS011;15734;50.904;6.922;2023-05-07T12:12:10;2.08;;;1.40;;
28523;SDS011;15734;50.904;6.922;2023-05-07T12:14:39;2.42;;;1.17;;
28523;SDS011;15734;50.904;6.922;2023-05-07T12:17:05;5.75;;;1.48;;
28523;SDS011;15734;50.904;6.922;2023-05-07T12:19:35;1.85;;;1.40;;
28523;SDS011;15734;50.904;6.922;2023-05-07T12:22:04;3.33;;;1.60;;
28523;SDS011;15734;50.904;6.922;2023-05-07T12:24:48;5.43;;;1.60;;
28523;SDS011;15734;50.904;6.922;2023-05-07T12:27:14;4.03;;;1.50;;
28523;SDS011;15734;50.904;6.922;2023-05-07T12:29:47;2.50;;;1.38;;
28523;SDS011;15734;50.904;6.922;2023-05-07T12:32:14;3.53;;;1.75;;
28523;SDS011;15734;50.904;6.922;2023-05-07T12:34:41;3.25;;;1.60;;
28523;SDS011;15734;50.904;6.922;2023-05-07T12:37:06;2.05;;;1.40;;
28523;SDS011;15734;50.904;6.922;2023-05-07T12:39:32;1.88;;;1.60;;
28523;SDS011;15734;50.904;6.922;2023-05-07T12:41:58;1.58;;;1.45;;
28523;SDS011;15734;50.904;6.922;2023-05-07T12:44:25;3.90;;;1.73;;
28523;SDS011;15734;50.904;6.922;2023-05-07T12:46:54;3.72;;;1.50;;
28523;SDS011;15734;50.904;6.922;2023-05-07T12:49:20;1.90;;;1.60;;
28523;SDS011;15734;50.904;6.922;2023-05-07T12:51:46;5.15;;;1.85;;
28523;SDS011;15734;50.904;6.922;2023-05-07T12:54:13;4.18;;;1.75;;
28523;SDS011;15734;50.904;6.922;2023-05-07T12:56:39;8.90;;;1.52;;
28523;SDS011;15734;50.904;6.922;2023-05-07T12:59:05;10.73;;;1.83;;
28523;SDS011;15734;50.904;6.922;2023-05-07T13:01:31;5.05;;;2.05;;
28523;SDS011;15734;50.904;6.922;2023-05-07T13:04:08;5.07;;;1.50;;
28523;SDS011;15734;50.904;6.922;2023-05-07T13:06:33;1.75;;;1.65;;
28523;SDS011;15734;50.904;6.922;2023-05-07T13:08:59;6.35;;;1.90;;
28523;SDS011;15734;50.904;6.922;2023-05-07T13:11:24;3.65;;;1.85;;
28523;SDS011;15734;50.904;6.922;2023-05-07T13:13:50;3.58;;;2.05;;
28523;SDS011;15734;50.904;6.922;2023-05-07T13:16:16;3.78;;;1.60;;
28523;SDS011;15734;50.904;6.922;2023-05-07T13:18:42;4.55;;;2.05;;
28523;SDS011;15734;50.904;6.922;2023-05-07T13:21:10;4.22;;;2.25;;
28523;SDS011;15734;50.904;6.922;2023-05-07T13:23:37;5.75;;;2.15;;
28523;SDS011;15734;50.904;6.922;2023-05-07T13:26:03;4.88;;;2.72;;
28523;SDS011;15734;50.904;6.922;2023-05-07T13:28:29;6.53;;;2.65;;
28523;SDS011;15734;50.904;6.922;2023-05-07T13:30:54;7.68;;;2.30;;
28523;SDS011;15734;50.904;6.922;2023-05-07T13:33:20;4.78;;;2.20;;
28523;SDS011;15734;50.904;6.922;2023-05-07T13:35:45;2.63;;;2.10;;
28523;SDS011;15734;50.904;6.922;2023-05-07T13:38:11;2.90;;;1.90;;
28523;SDS011;15734;50.904;6.922;2023-05-07T13:40:36;3.10;;;2.00;;
28523;SDS011;15734;50.904;6.922;2023-05-07T13:43:02;3.33;;;2.47;;
28523;SDS011;15734;50.904;6.922;2023-05-07T13:45:28;6.15;;;1.95;;
28523;SDS011;15734;50.904;6.922;2023-05-07T13:47:57;8.00;;;2.45;;
28523;SDS011;15734;50.904;6.922;2023-05-07T13:50:23;5.05;;;2.83;;
28523;SDS011;15734;50.904;6.922;2023-05-07T13:52:49;5.90;;;2.97;;
28523;SDS011;15734;50.904;6.922;2023-05-07T13:55:18;6.63;;;2.42;;
28523;SDS011;15734;50.904;6.922;2023-05-07T13:57:44;4.70;;;2.47;;
28523;SDS011;15734;50.904;6.922;2023-05-07T14:00:11;3.75;;;2.53;;
28523;SDS011;15734;50.904;6.922;2023-05-07T14:02:37;4.20;;;2.80;;
28523;SDS011;15734;50.904;6.922;2023-05-07T14:05:03;6.30;;;2.90;;
28523;SDS011;15734;50.904;6.922;2023-05-07T14:07:28;4.40;;;2.08;;
28523;SDS011;15734;50.904;6.922;2023-05-07T14:09:54;4.70;;;2.50;;
28523;SDS011;15734;50.904;6.922;2023-05-07T14:12:21;7.32;;;3.40;;
28523;SDS011;15734;50.904;6.922;2023-05-07T14:14:47;5.72;;;2.88;;
28523;SDS011;15734;50.904;6.922;2023-05-07T14:17:14;5.13;;;3.03;;
28523;SDS011;15734;50.904;6.922;2023-05-07T14:19:43;9.23;;;3.55;;
28523;SDS011;15734;50.904;6.922;2023-05-07T14:22:09;3.92;;;2.70;;
28523;SDS011;15734;50.904;6.922;2023-05-07T14:24:35;5.13;;;2.55;;
28523;SDS011;15734;50.904;6.922;2023-05-07T14:27:01;9.95;;;3.70;;
28523;SDS011;15734;50.904;6.922;2023-05-07T14:29:27;3.97;;;3.00;;
28523;SDS011;15734;50.904;6.922;2023-05-07T14:31:53;4.13;;;2.75;;
28523;SDS011;15734;50.904;6.922;2023-05-07T14:34:18;8.93;;;3.10;;
28523;SDS011;15734;50.904;6.922;2023-05-07T14:36:44;6.93;;;2.40;;
28523;SDS011;15734;50.904;6.922;2023-05-07T14:39:09;4.75;;;2.95;;
28523;SDS011;15734;50.904;6.922;2023-05-07T14:41:35;5.00;;;2.47;;
28523;SDS011;15734;50.904;6.922;2023-05-07T14:44:00;4.35;;;2.55;;
28523;SDS011;15734;50.904;6.922;2023-05-07T14:46:28;4.25;;;2.38;;
28523;SDS011;15734;50.904;6.922;2023-05-07T14:48:54;4.03;;;2.33;;
28523;SDS011;15734;50.904;6.922;2023-05-07T14:51:21;2.72;;;2.28;;
28523;SDS011;15734;50.904;6.922;2023-05-07T14:53:47;4.45;;;2.47;;
28523;SDS011;15734;50.904;6.922;2023-05-07T14:56:12;5.60;;;2.78;;
28523;SDS011;15734;50.904;6.922;2023-05-07T14:58:38;4.90;;;2.97;;